createdAt,value
2018-06-15T00:00:09.006Z,17.46
2018-06-15T00:01:08.822Z,17.46
2018-06-15T00:02:09.882Z,17.45
2018-06-15T00:03:08.671Z,17.42
2018-06-15T00:04:08.616Z,17.38
2018-06-15T00:05:08.516Z,17.35
2018-06-15T00:06:08.532Z,17.45
2018-06-15T00:07:08.394Z,17.35
2018-06-15T00:08:08.338Z,17.43
2018-06-15T00:09:08.204Z,17.43
2018-06-15T00:11:50.398Z,17.53
2018-06-15T00:12:51.401Z,17.45
2018-06-15T00:13:50.229Z,17.39
2018-06-15T00:16:32.381Z,17.47
2018-06-15T00:18:57.976Z,17.45
2018-06-15T00:40:11.855Z,17.46
2018-06-15T00:41:11.833Z,17.49
2018-06-15T00:42:11.687Z,17.46
2018-06-15T00:43:12.714Z,17.43
2018-06-15T00:44:11.512Z,17.46
2018-06-15T00:45:11.576Z,17.45
2018-06-15T00:46:11.378Z,17.47
2018-06-15T00:48:53.441Z,17.38
2018-06-15T00:50:54.487Z,17.30
2018-06-15T00:50:54.989Z,17.38
2018-06-15T00:51:55.061Z,17.35
2018-06-15T00:52:54.825Z,17.32
2018-06-15T00:53:54.858Z,17.33
2018-06-15T00:54:54.674Z,17.35
2018-06-15T00:57:36.916Z,17.21
2018-06-15T00:58:36.935Z,17.22
2018-06-15T00:59:36.736Z,17.30
2018-06-15T01:00:36.743Z,17.18
2018-06-15T01:01:36.581Z,17.21
2018-06-15T01:02:36.582Z,17.20
2018-06-15T01:03:36.418Z,17.20
2018-06-15T01:04:36.360Z,17.17
2018-06-15T01:05:36.261Z,17.14
2018-06-15T01:06:36.266Z,17.14
2018-06-15T01:07:36.125Z,17.15
2018-06-15T01:08:36.116Z,17.12
2018-06-15T01:09:35.967Z,17.20
2018-06-15T01:10:35.985Z,17.20
2018-06-15T01:11:35.794Z,17.21
2018-06-15T01:14:17.930Z,17.36
2018-06-15T01:15:17.891Z,17.27
2018-06-15T01:16:17.757Z,17.40
2018-06-15T01:17:17.709Z,17.36
2018-06-15T01:18:17.583Z,17.30
2018-06-15T01:19:17.657Z,17.36
2018-06-15T01:20:17.437Z,17.28
2018-06-15T01:21:17.429Z,17.30
2018-06-15T01:22:17.291Z,17.32
2018-06-15T01:24:59.423Z,17.32
2018-06-15T01:25:59.429Z,17.15
2018-06-15T01:26:59.241Z,17.25
2018-06-15T01:27:59.276Z,17.21
2018-06-15T01:30:23.920Z,17.15
2018-06-15T01:33:05.898Z,17.12
2018-06-15T01:34:06.900Z,17.17
2018-06-15T01:35:05.749Z,17.07
2018-06-15T01:36:05.751Z,17.17
2018-06-15T01:37:05.584Z,17.09
2018-06-15T01:39:47.430Z,17.00
2018-06-15T01:40:47.380Z,17.03
2018-06-15T01:41:47.247Z,17.12
2018-06-15T01:42:47.287Z,17.14
2018-06-15T01:43:47.087Z,17.06
2018-06-15T01:44:48.131Z,17.10
2018-06-15T01:45:46.933Z,17.10
2018-06-15T01:48:56.635Z,17.12
2018-06-15T01:49:54.358Z,17.18
2018-06-15T01:50:54.277Z,17.14
2018-06-15T01:51:54.173Z,17.21
2018-06-15T01:52:54.187Z,17.17
2018-06-15T01:53:54.009Z,17.20
2018-06-15T01:54:54.035Z,17.20
2018-06-15T01:55:53.888Z,17.33
2018-06-15T01:56:53.914Z,17.30
2018-06-15T01:57:53.699Z,17.28
2018-06-15T02:00:32.064Z,17.30
2018-06-15T02:01:30.891Z,17.40
2018-06-15T02:02:30.834Z,17.36
2018-06-15T02:03:30.677Z,17.42
2018-06-15T02:04:30.715Z,17.36
2018-06-15T02:05:30.515Z,17.39
2018-06-15T02:06:30.570Z,17.36
2018-06-15T02:07:30.365Z,17.45
2018-06-15T02:08:30.331Z,17.33
2018-06-15T02:09:30.217Z,17.42
2018-06-15T02:10:30.274Z,17.38
2018-06-15T02:11:30.048Z,17.39
2018-06-15T02:12:30.056Z,17.35
2018-06-15T02:13:29.900Z,17.38
2018-06-15T02:14:29.879Z,17.30
2018-06-15T02:15:29.767Z,17.28
2018-06-15T02:16:29.769Z,17.32
2018-06-15T02:17:29.604Z,17.36
2018-06-15T02:18:29.582Z,17.30
2018-06-15T02:19:29.413Z,17.28
2018-06-15T02:21:01.532Z,17.15
2018-06-15T02:21:29.295Z,17.18
2018-06-15T02:22:29.212Z,17.15
2018-06-15T02:23:29.208Z,17.14
2018-06-15T02:24:29.023Z,17.18
2018-06-15T02:27:10.949Z,17.03
2018-06-15T02:28:10.944Z,17.00
2018-06-15T02:29:10.758Z,17.06
2018-06-15T02:30:10.723Z,16.85
2018-06-15T02:31:10.609Z,16.92
2018-06-15T02:32:10.669Z,16.84
2018-06-15T02:33:10.470Z,16.96
2018-06-15T02:34:10.432Z,16.90
2018-06-15T02:35:10.289Z,16.99
2018-06-15T02:36:10.236Z,17.03
2018-06-15T02:37:10.162Z,17.03
2018-06-15T02:38:11.124Z,17.10
2018-06-15T02:39:09.973Z,17.14
2018-06-15T02:41:51.937Z,17.15
2018-06-15T02:42:52.914Z,17.18
2018-06-15T02:43:51.781Z,17.20
2018-06-15T02:44:51.774Z,17.21
2018-06-15T02:45:51.614Z,17.33
2018-06-15T02:48:33.460Z,17.28
2018-06-15T02:49:33.465Z,17.36
2018-06-15T02:50:33.266Z,17.33
2018-06-15T02:51:33.335Z,17.32
2018-06-15T02:52:33.108Z,17.45
2018-06-15T02:53:34.153Z,17.36
2018-06-15T02:54:32.967Z,17.36
2018-06-15T02:55:32.998Z,17.38
2018-06-15T02:56:32.794Z,17.35
2018-06-15T02:59:14.944Z,17.42
2018-06-15T03:00:35.842Z,17.40
2018-06-15T03:01:14.769Z,17.40
2018-06-15T03:02:14.817Z,17.45
2018-06-15T03:03:14.619Z,17.43
2018-06-15T03:04:14.629Z,17.43
2018-06-15T03:05:14.474Z,17.39
2018-06-15T03:06:14.435Z,17.45
2018-06-15T03:07:14.297Z,17.40
2018-06-15T03:08:14.340Z,17.43
2018-06-15T03:09:14.167Z,17.46
2018-06-15T03:11:56.440Z,17.46
2018-06-15T03:12:56.457Z,17.54
2018-06-15T03:13:56.277Z,17.51
2018-06-15T03:14:56.291Z,17.51
2018-06-15T03:15:56.123Z,17.53
2018-06-15T03:16:56.079Z,17.54
2018-06-15T03:20:19.957Z,17.53
2018-06-15T03:21:19.959Z,17.53
2018-06-15T03:22:19.778Z,17.53
2018-06-15T03:25:02.042Z,17.47
2018-06-15T03:26:06.625Z,17.47
2018-06-15T03:27:01.776Z,17.45
2018-06-15T03:28:01.780Z,17.40
2018-06-15T03:29:01.620Z,17.47
2018-06-15T03:32:58.431Z,17.43
2018-06-15T03:33:58.473Z,17.43
2018-06-15T03:34:58.309Z,17.43
2018-06-15T03:35:58.292Z,17.42
2018-06-15T03:36:58.131Z,17.40
2018-06-15T03:37:58.161Z,17.33
2018-06-15T03:38:57.975Z,17.39
2018-06-15T03:39:57.994Z,17.33
2018-06-15T03:40:57.811Z,17.35
2018-06-15T03:41:57.828Z,17.36
2018-06-15T03:42:57.650Z,17.36
2018-06-15T03:43:57.682Z,17.42
2018-06-15T03:44:57.491Z,17.36
2018-06-15T03:45:57.493Z,17.38
2018-06-15T03:46:57.368Z,17.40
2018-06-15T03:49:39.442Z,17.43
2018-06-15T03:50:39.430Z,17.43
2018-06-15T03:51:39.300Z,17.43
2018-06-15T03:54:21.446Z,17.45
2018-06-15T03:55:22.464Z,17.46
2018-06-15T03:56:21.282Z,17.45
2018-06-15T03:57:21.351Z,17.46
2018-06-15T03:58:21.127Z,17.53
2018-06-15T03:59:21.128Z,17.53
2018-06-15T04:00:20.980Z,17.46
2018-06-15T04:01:20.944Z,17.47
2018-06-15T04:02:20.833Z,17.47
2018-06-15T04:03:20.868Z,17.54
2018-06-15T04:04:20.677Z,17.49
2018-06-15T04:05:20.662Z,17.47
2018-06-15T04:06:20.567Z,17.54
2018-06-15T04:07:20.494Z,17.47
2018-06-15T04:08:20.341Z,17.49
2018-06-15T04:09:20.379Z,17.51
2018-06-15T04:10:20.184Z,17.60
2018-06-15T04:11:20.227Z,17.68
2018-06-15T04:12:20.057Z,17.62
2018-06-15T04:13:20.009Z,17.62
2018-06-15T04:14:19.868Z,17.70
2018-06-15T04:17:01.963Z,17.96
2018-06-15T04:18:01.917Z,17.92
2018-06-15T04:19:01.799Z,17.87
2018-06-15T04:20:01.831Z,17.87
2018-06-15T04:21:01.645Z,17.91
2018-06-15T04:22:01.672Z,17.94
2018-06-15T04:23:01.522Z,17.89
2018-06-15T04:25:43.449Z,17.84
2018-06-15T04:26:43.436Z,17.84
2018-06-15T04:27:43.308Z,17.80
2018-06-15T04:28:43.278Z,17.91
2018-06-15T04:29:43.148Z,17.89
2018-06-15T04:30:43.150Z,17.89
2018-06-15T04:31:43.008Z,17.96
2018-06-15T04:32:42.961Z,17.98
2018-06-15T04:33:42.860Z,17.98
2018-06-15T04:36:25.069Z,18.19
2018-06-15T04:37:24.985Z,18.26
2018-06-15T04:38:24.828Z,18.26
2018-06-15T04:39:24.784Z,18.28
2018-06-15T04:40:24.647Z,18.31
2018-06-15T05:04:47.013Z,18.49
2018-06-15T05:05:46.825Z,18.36
2018-06-15T05:06:46.881Z,18.39
2018-06-15T05:07:46.712Z,18.47
2018-06-15T05:08:46.679Z,18.39
2018-06-15T05:09:46.681Z,18.39
2018-06-15T05:10:46.489Z,18.19
2018-06-15T05:11:46.351Z,18.28
2018-06-15T05:12:46.406Z,18.20
2018-06-15T05:13:46.202Z,18.09
2018-06-15T05:14:46.258Z,18.05
2018-06-15T05:15:46.065Z,18.05
2018-06-15T05:16:46.038Z,18.01
2018-06-15T05:17:45.905Z,18.02
2018-06-15T05:18:45.932Z,17.99
2018-06-15T05:19:45.751Z,18.04
2018-06-15T05:20:45.801Z,18.13
2018-06-15T05:21:45.588Z,18.11
2018-06-15T05:22:45.562Z,18.17
2018-06-15T05:23:45.413Z,18.23
2018-06-15T05:26:27.499Z,18.35
2018-06-15T05:29:09.466Z,18.46
2018-06-15T05:31:51.485Z,18.54
2018-06-15T05:32:51.451Z,18.65
2018-06-15T05:33:51.313Z,18.65
2018-06-15T05:36:33.593Z,18.74
2018-06-15T05:37:33.396Z,18.86
2018-06-15T05:40:15.482Z,18.99
2018-06-15T05:41:16.639Z,19.12
2018-06-15T06:00:13.482Z,19.95
2018-06-15T06:01:13.305Z,19.95
2018-06-15T06:02:13.263Z,20.15
2018-06-15T06:03:13.167Z,20.15
2018-06-15T06:04:13.236Z,20.19
2018-06-15T06:05:12.973Z,20.30
2018-06-15T06:06:12.962Z,20.23
2018-06-15T06:07:12.841Z,20.30
2018-06-15T06:08:12.810Z,20.31
2018-06-15T06:09:12.663Z,20.12
2018-06-15T06:10:12.697Z,19.94
2018-06-15T06:11:12.506Z,19.86
2018-06-15T06:12:12.503Z,19.67
2018-06-15T06:13:12.455Z,19.76
2018-06-15T06:14:12.400Z,19.71
2018-06-15T06:15:12.208Z,19.78
2018-06-15T06:16:12.236Z,19.87
2018-06-15T06:17:12.042Z,19.94
2018-06-15T06:18:12.072Z,20.07
2018-06-15T06:19:11.890Z,20.16
2018-06-15T06:21:20.092Z,20.04
2018-06-15T06:21:20.620Z,20.12
2018-06-15T06:24:03.046Z,20.08
2018-06-15T06:26:45.010Z,20.05
2018-06-15T06:27:44.942Z,19.94
2018-06-15T06:28:44.876Z,19.92
2018-06-15T06:29:44.856Z,19.86
2018-06-15T06:30:44.686Z,19.76
2018-06-15T06:31:44.678Z,19.64
2018-06-15T06:32:44.557Z,19.49
2018-06-15T06:33:44.576Z,19.13
2018-06-15T06:34:44.402Z,19.27
2018-06-15T06:35:44.403Z,19.15
2018-06-15T06:36:44.231Z,19.13
2018-06-15T06:37:44.194Z,19.28
2018-06-15T06:38:44.088Z,19.34
2018-06-15T06:39:44.126Z,19.31
2018-06-15T06:40:43.927Z,19.28
2018-06-15T06:41:43.935Z,19.43
2018-06-15T06:42:43.774Z,19.57
2018-06-15T06:43:43.795Z,19.57
2018-06-15T06:44:43.643Z,19.60
2018-06-15T06:48:18.514Z,20.20
2018-06-15T06:51:04.515Z,22.45
2018-06-15T06:52:04.469Z,22.30
2018-06-15T06:53:04.355Z,23.07
2018-06-15T06:54:04.301Z,23.25
2018-06-15T06:55:04.237Z,23.50
2018-06-15T06:56:04.236Z,23.57
2018-06-15T07:19:24.782Z,23.77
2018-06-15T07:20:24.843Z,23.54
2018-06-15T07:21:24.658Z,23.77
2018-06-15T07:24:06.553Z,25.02
2018-06-15T07:25:06.531Z,24.87
2018-06-15T07:26:06.387Z,25.20
2018-06-15T07:27:06.338Z,24.60
2018-06-15T07:28:06.239Z,24.45
2018-06-15T07:29:06.245Z,24.71
2018-06-15T07:30:06.079Z,24.94
2018-06-15T07:32:48.040Z,25.20
2018-06-15T07:33:48.040Z,24.89
2018-06-15T07:34:47.865Z,24.64
2018-06-15T07:37:30.045Z,23.89
2018-06-15T07:38:30.059Z,23.63
2018-06-15T07:39:29.878Z,23.15
2018-06-15T07:40:29.868Z,22.69
2018-06-15T07:41:29.755Z,22.67
2018-06-15T07:45:10.544Z,22.35
2018-06-15T07:46:10.619Z,22.66
2018-06-15T07:47:10.676Z,22.66
2018-06-15T07:48:10.348Z,23.25
2018-06-15T07:49:10.242Z,23.31
2018-06-15T07:51:52.519Z,22.45
2018-06-15T07:52:52.517Z,22.36
2018-06-15T07:53:52.401Z,22.05
2018-06-15T08:01:10.083Z,22.20
2018-06-15T08:02:09.872Z,22.54
2018-06-15T08:03:09.839Z,22.74
2018-06-15T08:05:51.689Z,22.42
2018-06-15T08:06:51.457Z,22.12
2018-06-15T08:07:51.450Z,21.53
2018-06-15T08:08:51.369Z,21.82
2018-06-15T08:09:52.324Z,21.63
2018-06-15T08:10:51.202Z,21.55
2018-06-15T08:11:51.107Z,21.77
2018-06-15T08:12:51.010Z,22.74
2018-06-15T08:13:50.979Z,22.91
2018-06-15T08:14:50.873Z,23.16
2018-06-15T08:15:50.809Z,23.25
2018-06-15T08:16:50.734Z,23.19
2018-06-15T08:17:50.659Z,23.01
2018-06-15T08:18:50.615Z,23.06
2018-06-15T08:19:50.504Z,23.04
2018-06-15T08:20:50.431Z,22.89
2018-06-15T08:21:50.413Z,22.49
2018-06-15T08:22:50.283Z,22.42
2018-06-15T08:23:50.325Z,22.20
2018-06-15T08:24:50.167Z,22.17
2018-06-15T08:25:50.126Z,22.19
2018-06-15T08:26:49.980Z,22.30
2018-06-15T08:27:49.994Z,22.12
2018-06-15T08:28:49.819Z,22.14
2018-06-15T08:29:49.896Z,22.20
2018-06-15T08:30:49.700Z,22.12
2018-06-15T08:31:49.625Z,22.05
2018-06-15T08:32:49.532Z,22.21
2018-06-15T08:33:49.574Z,22.30
2018-06-15T08:34:49.413Z,22.29
2018-06-15T08:35:49.451Z,22.44
2018-06-15T08:36:49.238Z,22.31
2018-06-15T08:37:49.166Z,22.44
2018-06-15T08:38:49.084Z,22.38
2018-06-15T08:39:49.051Z,22.42
2018-06-15T08:40:48.949Z,22.66
2018-06-15T08:41:48.896Z,22.91
2018-06-15T08:42:48.804Z,23.01
2018-06-15T08:43:48.829Z,23.56
2018-06-15T08:44:48.631Z,24.34
2018-06-15T08:45:48.581Z,25.74
2018-06-15T08:46:48.521Z,25.76
2018-06-15T08:49:30.545Z,24.83
2018-06-15T08:50:31.497Z,24.29
2018-06-15T08:51:30.397Z,23.96
2018-06-15T08:52:30.351Z,23.96
2018-06-15T08:53:30.249Z,24.00
2018-06-15T08:54:30.192Z,24.92
2018-06-15T08:55:30.101Z,25.71
2018-06-15T08:56:31.058Z,26.29
2018-06-15T08:57:29.951Z,25.74
2018-06-15T08:58:29.897Z,25.69
2018-06-15T08:59:29.818Z,25.12
2018-06-15T09:00:29.745Z,25.89
2018-06-15T09:01:29.698Z,26.65
2018-06-15T09:02:29.612Z,27.28
2018-06-15T09:03:29.523Z,27.28
2018-06-15T09:04:29.468Z,27.55
2018-06-15T09:05:29.387Z,27.28
2018-06-15T09:06:30.388Z,27.03
2018-06-15T09:07:29.257Z,25.89
2018-06-15T09:10:11.585Z,26.32
2018-06-15T09:11:11.485Z,25.89
2018-06-15T09:12:11.447Z,25.78
2018-06-15T09:13:11.355Z,26.29
2018-06-15T09:14:11.282Z,26.79
2018-06-15T09:16:53.546Z,26.87
2018-06-15T09:17:53.512Z,25.86
2018-06-15T09:18:53.418Z,26.41
2018-06-15T09:21:35.554Z,27.93
2018-06-15T09:22:36.521Z,28.14
2018-06-15T09:23:35.490Z,28.69
2018-06-15T09:26:17.631Z,28.60
2018-06-15T09:27:17.504Z,28.08
2018-06-15T09:28:17.490Z,28.54
2018-06-15T09:29:17.363Z,28.06
2018-06-15T09:30:17.303Z,27.30
2018-06-15T09:32:59.580Z,25.89
2018-06-15T09:33:59.526Z,25.93
2018-06-15T09:34:59.472Z,26.83
2018-06-15T09:35:59.368Z,27.65
2018-06-15T09:36:59.297Z,28.23
2018-06-15T09:39:41.592Z,29.76
2018-06-15T09:42:23.578Z,29.54
2018-06-15T09:43:23.530Z,29.41
2018-06-15T09:44:23.460Z,29.12
2018-06-15T09:47:05.602Z,26.24
2018-06-15T09:48:05.520Z,25.96
2018-06-15T09:49:05.441Z,26.46
2018-06-15T09:50:06.392Z,27.27
2018-06-15T09:51:05.315Z,27.58
2018-06-15T09:52:05.272Z,27.91
2018-06-15T09:53:05.172Z,28.23
2018-06-15T09:54:05.133Z,28.58
2018-06-15T09:55:05.063Z,28.74
2018-06-15T09:56:04.990Z,28.85
2018-06-15T09:57:04.911Z,29.26
2018-06-15T09:58:04.864Z,29.26
2018-06-15T09:59:04.785Z,28.85
2018-06-15T10:01:47.104Z,27.24
2018-06-15T10:02:47.012Z,27.02
2018-06-15T10:03:46.947Z,27.48
2018-06-15T10:04:46.991Z,27.52
2018-06-15T10:05:46.895Z,27.55
2018-06-15T10:06:46.765Z,27.83
2018-06-15T10:07:46.673Z,28.39
2018-06-15T10:08:46.736Z,28.85
2018-06-15T10:09:46.548Z,29.14
2018-06-15T10:10:46.561Z,29.54
2018-06-15T10:11:46.417Z,29.21
2018-06-15T10:12:46.459Z,29.55
2018-06-15T10:13:46.305Z,30.00
2018-06-15T10:16:28.619Z,27.13
2018-06-15T10:17:28.527Z,26.46
2018-06-15T10:18:28.459Z,25.91
2018-06-15T10:19:28.471Z,25.12
2018-06-15T10:20:28.332Z,24.37
2018-06-15T10:21:28.445Z,24.31
2018-06-15T10:22:28.191Z,23.90
2018-06-15T10:23:28.200Z,23.72
2018-06-15T10:24:28.060Z,23.64
2018-06-15T10:25:28.106Z,23.56
2018-06-15T10:26:27.947Z,23.59
2018-06-15T10:27:27.923Z,23.64
2018-06-15T10:28:27.804Z,23.93
2018-06-15T10:31:10.086Z,23.96
2018-06-15T10:32:11.165Z,24.21
2018-06-15T10:33:10.021Z,25.53
2018-06-15T10:34:09.931Z,26.46
2018-06-15T10:35:09.841Z,26.88
2018-06-15T10:37:52.122Z,28.28
2018-06-15T10:40:34.101Z,28.51
2018-06-15T10:41:34.173Z,28.95
2018-06-15T10:42:34.123Z,28.67
2018-06-15T10:43:33.945Z,29.49
2018-06-15T10:44:33.810Z,29.29
2018-06-15T10:45:33.867Z,28.72
2018-06-15T10:46:33.680Z,28.55
2018-06-15T10:47:33.694Z,27.96
2018-06-15T10:48:33.565Z,27.68
2018-06-15T10:49:33.587Z,28.25
2018-06-15T10:50:33.425Z,28.09
2018-06-15T10:51:33.392Z,28.65
2018-06-15T10:52:33.312Z,28.98
2018-06-15T10:53:35.282Z,28.97
2018-06-15T10:54:33.169Z,28.11
2018-06-15T10:55:33.205Z,27.52
2018-06-15T10:56:33.027Z,27.01
2018-06-15T10:57:33.029Z,26.56
2018-06-15T10:58:32.913Z,26.53
2018-06-15T10:59:41.786Z,27.08
2018-06-15T11:00:32.770Z,27.93
2018-06-15T11:01:32.740Z,28.72
2018-06-15T11:02:32.648Z,28.95
2018-06-15T11:03:34.735Z,29.17
2018-06-15T11:04:32.534Z,29.70
2018-06-15T11:07:14.603Z,29.21
2018-06-15T11:08:14.648Z,29.11
2018-06-15T11:09:14.491Z,29.84
2018-06-15T11:10:14.477Z,29.42
2018-06-15T11:11:14.335Z,29.58
2018-06-15T11:13:56.647Z,30.00
2018-06-15T11:14:56.589Z,29.60
2018-06-15T11:15:56.497Z,29.11
2018-06-15T11:16:56.508Z,29.07
2018-06-15T11:17:56.355Z,29.45
2018-06-15T11:18:57.374Z,28.67
2018-06-15T11:19:56.305Z,27.58
2018-06-15T11:20:57.303Z,26.29
2018-06-15T11:21:56.188Z,26.36
2018-06-15T11:24:38.102Z,28.54
2018-06-15T11:27:20.147Z,28.73
2018-06-15T11:28:20.471Z,29.12
2018-06-15T11:29:19.985Z,29.48
2018-06-15T11:32:02.166Z,29.91
2018-06-15T11:33:02.129Z,30.19
2018-06-15T11:34:02.027Z,29.41
2018-06-15T11:35:02.041Z,29.64
2018-06-15T11:36:01.950Z,29.57
2018-06-15T11:37:01.883Z,29.42
2018-06-15T11:38:01.751Z,29.70
2018-06-15T11:39:01.813Z,29.91
2018-06-15T11:40:01.633Z,29.94
2018-06-15T11:41:02.659Z,29.62
2018-06-15T11:42:01.485Z,29.17
2018-06-15T11:43:01.473Z,29.35
2018-06-15T11:44:01.365Z,29.92
2018-06-15T11:45:01.384Z,30.10
2018-06-15T11:46:01.254Z,30.46
2018-06-15T11:48:43.140Z,29.37
2018-06-15T11:49:45.565Z,29.23
2018-06-15T11:50:43.031Z,29.27
2018-06-15T11:53:29.133Z,29.23
2018-06-15T11:54:29.101Z,29.42
2018-06-15T11:55:28.994Z,28.95
2018-06-15T11:56:29.052Z,28.61
2018-06-15T11:57:28.921Z,28.72
2018-06-15T11:58:28.919Z,29.20
2018-06-15T11:59:28.727Z,29.60
2018-06-15T12:00:28.714Z,29.15
2018-06-15T12:01:28.637Z,28.83
2018-06-15T12:02:28.643Z,28.76
2018-06-15T12:03:28.474Z,28.60
2018-06-15T12:04:28.435Z,28.65
2018-06-15T12:05:28.349Z,28.09
2018-06-15T12:06:28.388Z,28.32
2018-06-15T12:07:28.271Z,28.02
2018-06-15T12:10:10.126Z,27.01
2018-06-15T12:12:52.140Z,27.28
2018-06-15T12:15:34.139Z,27.25
2018-06-15T12:16:34.149Z,26.98
2018-06-15T12:17:34.001Z,26.38
2018-06-15T12:18:33.964Z,26.09
2018-06-15T12:19:33.854Z,26.42
2018-06-15T12:20:33.875Z,26.53
2018-06-15T12:21:33.702Z,26.51
2018-06-15T12:22:33.740Z,26.54
2018-06-15T12:23:33.569Z,26.65
2018-06-15T12:24:33.596Z,26.68
2018-06-15T12:25:33.427Z,26.66
2018-06-15T12:26:33.417Z,26.68
2018-06-15T12:27:33.310Z,26.19
2018-06-15T12:28:33.360Z,26.16
2018-06-15T12:29:33.133Z,26.04
2018-06-15T12:30:33.112Z,26.24
2018-06-15T12:31:32.997Z,26.47
2018-06-15T12:34:15.226Z,26.21
2018-06-15T12:35:15.124Z,26.34
2018-06-15T12:36:15.024Z,26.68
2018-06-15T12:37:14.970Z,26.34
2018-06-15T12:38:14.854Z,26.21
2018-06-15T12:39:14.870Z,26.39
2018-06-15T12:40:14.729Z,26.81
2018-06-15T12:42:56.644Z,26.24
2018-06-15T12:43:56.665Z,26.20
2018-06-15T12:44:56.519Z,26.23
2018-06-15T12:45:56.576Z,26.54
2018-06-15T12:46:56.343Z,26.79
2018-06-15T12:47:56.385Z,27.02
2018-06-15T12:48:56.239Z,26.98
2018-06-15T12:49:56.223Z,26.88
2018-06-15T12:50:56.060Z,26.86
2018-06-15T12:51:56.088Z,26.65
2018-06-15T12:52:55.917Z,26.68
2018-06-15T12:53:55.913Z,26.68
2018-06-15T12:54:55.817Z,26.69
2018-06-15T12:55:55.774Z,26.29
2018-06-15T12:56:55.631Z,25.86
2018-06-15T12:57:55.637Z,25.71
2018-06-15T12:58:55.499Z,25.64
2018-06-15T12:59:55.542Z,25.56
2018-06-15T13:00:55.375Z,25.41
2018-06-15T13:01:55.340Z,25.17
2018-06-15T13:02:55.188Z,25.05
2018-06-15T13:03:55.154Z,25.16
2018-06-15T13:04:55.051Z,25.45
2018-06-15T13:05:56.038Z,25.79
2018-06-15T13:06:54.900Z,25.93
2018-06-15T13:09:37.165Z,25.75
2018-06-15T13:10:37.190Z,25.96
2018-06-15T13:11:37.026Z,26.08
2018-06-15T13:14:19.145Z,26.41
2018-06-15T13:15:19.188Z,26.24
2018-06-15T13:16:19.050Z,26.35
2018-06-15T13:17:18.987Z,26.44
2018-06-15T13:18:18.848Z,26.49
2018-06-15T13:19:18.900Z,26.46
2018-06-15T13:20:18.715Z,26.73
2018-06-15T13:21:19.792Z,26.72
2018-06-15T13:22:18.564Z,26.03
2018-06-15T13:23:18.523Z,25.72
2018-06-15T13:24:18.426Z,25.93
2018-06-15T13:25:18.427Z,25.85
2018-06-15T13:26:18.295Z,26.09
2018-06-15T13:29:00.163Z,26.66
2018-06-15T13:30:00.110Z,26.65
2018-06-15T13:31:00.045Z,26.71
2018-06-15T13:32:00.113Z,26.61
2018-06-15T13:32:59.856Z,26.53
2018-06-15T13:35:42.160Z,26.23
2018-06-15T13:36:42.210Z,26.42
2018-06-15T13:37:42.052Z,26.69
2018-06-15T13:38:41.965Z,26.68
2018-06-15T13:39:41.978Z,26.68
2018-06-15T13:40:41.883Z,26.64
2018-06-15T13:41:41.744Z,26.72
2018-06-15T13:42:42.751Z,26.76
2018-06-15T13:43:41.584Z,26.72
2018-06-15T13:44:41.599Z,26.86
2018-06-15T13:45:41.451Z,26.87
2018-06-15T13:48:23.691Z,26.64
2018-06-15T13:51:05.682Z,26.12
2018-06-15T13:52:06.684Z,26.21
2018-06-15T13:53:05.538Z,26.44
2018-06-15T13:54:05.533Z,26.41
2018-06-15T13:55:05.381Z,26.47
2018-06-15T13:56:05.314Z,26.32
2018-06-15T13:57:05.288Z,26.11
2018-06-15T13:58:05.291Z,25.89
2018-06-15T13:59:05.116Z,25.98
2018-06-15T14:00:05.200Z,26.06
2018-06-15T14:01:04.966Z,26.16
2018-06-15T14:02:05.226Z,26.12
2018-06-15T14:03:04.825Z,26.17
2018-06-15T14:05:46.659Z,26.31
2018-06-15T14:06:46.704Z,26.35
2018-06-15T14:07:46.551Z,26.39
2018-06-15T14:08:46.605Z,26.60
2018-06-15T14:09:46.395Z,26.57
2018-06-15T14:12:28.676Z,26.87
2018-06-15T14:15:10.690Z,26.72
2018-06-15T14:16:10.673Z,26.78
2018-06-15T14:17:10.557Z,26.83
2018-06-15T14:18:11.555Z,26.51
2018-06-15T14:19:10.443Z,26.20
2018-06-15T14:20:11.919Z,25.86
2018-06-15T14:21:10.343Z,25.83
2018-06-15T14:22:10.216Z,25.89
2018-06-15T14:23:10.132Z,26.12
2018-06-15T14:25:56.212Z,26.39
2018-06-15T14:26:56.219Z,26.39
2018-06-15T14:27:56.037Z,25.94
2018-06-15T14:28:58.758Z,25.93
2018-06-15T14:29:55.912Z,25.90
2018-06-15T14:30:55.829Z,25.85
2018-06-15T14:31:55.742Z,26.19
2018-06-15T14:32:58.195Z,25.98
2018-06-15T14:33:55.603Z,25.74
2018-06-15T14:34:55.554Z,25.38
2018-06-15T14:35:55.462Z,25.35
2018-06-15T14:36:55.383Z,25.07
2018-06-15T14:37:55.424Z,25.17
2018-06-15T14:38:55.225Z,25.19
2018-06-15T14:39:55.157Z,25.05
2018-06-15T14:40:55.108Z,25.01
2018-06-15T14:41:55.089Z,24.92
2018-06-15T14:42:56.971Z,24.87
2018-06-15T14:43:55.224Z,24.90
2018-06-15T14:44:55.335Z,24.94
2018-06-15T14:45:54.766Z,24.92
2018-06-15T14:46:54.901Z,24.97
2018-06-15T14:47:54.568Z,25.14
2018-06-15T14:48:54.687Z,25.09
2018-06-15T14:49:54.412Z,24.92
2018-06-15T14:50:54.354Z,25.14
2018-06-15T14:51:54.277Z,25.16
2018-06-15T14:52:54.229Z,25.23
2018-06-15T14:53:54.143Z,25.36
2018-06-15T14:54:54.160Z,25.24
2018-06-15T14:55:53.980Z,25.20
2018-06-15T14:56:53.986Z,25.30
2018-06-15T14:57:53.826Z,25.23
2018-06-15T14:58:53.863Z,25.22
2018-06-15T14:59:53.687Z,25.31
2018-06-15T15:00:53.698Z,25.44
2018-06-15T15:01:53.528Z,25.49
2018-06-15T15:02:53.579Z,25.61
2018-06-15T15:03:53.383Z,25.67
2018-06-15T15:04:53.441Z,25.75
2018-06-15T15:05:53.253Z,25.90
2018-06-15T15:06:53.199Z,26.13
2018-06-15T15:07:53.109Z,26.21
2018-06-15T15:08:53.025Z,26.27
2018-06-15T15:09:52.955Z,26.23
2018-06-15T15:10:52.949Z,26.23
2018-06-15T15:11:52.817Z,26.12
2018-06-15T15:12:52.757Z,26.17
2018-06-15T15:13:52.648Z,26.24
2018-06-15T15:14:52.634Z,26.35
2018-06-15T15:15:52.502Z,26.39
2018-06-15T15:16:52.537Z,26.31
2018-06-15T15:17:52.391Z,26.32
2018-06-15T15:18:52.308Z,26.39
2018-06-15T15:19:52.219Z,26.46
2018-06-15T15:20:52.185Z,26.34
2018-06-15T15:21:52.179Z,26.36
2018-06-15T15:22:52.030Z,26.35
2018-06-15T15:23:51.980Z,26.27
2018-06-15T15:24:51.854Z,26.34
2018-06-15T15:25:51.788Z,26.32
2018-06-15T15:28:33.773Z,26.17
2018-06-15T15:29:33.718Z,26.08
2018-06-15T15:30:33.544Z,26.19
2018-06-15T15:31:33.589Z,26.16
2018-06-15T15:32:33.410Z,26.41
2018-06-15T15:33:33.450Z,26.57
2018-06-15T15:34:33.279Z,26.47
2018-06-15T15:35:33.324Z,26.64
2018-06-15T15:36:33.117Z,26.71
2018-06-15T15:37:33.046Z,26.86
2018-06-15T15:38:33.007Z,26.84
2018-06-15T15:39:32.929Z,26.83
2018-06-15T15:40:32.837Z,26.69
2018-06-15T15:41:32.880Z,26.86
2018-06-15T15:42:32.689Z,26.86
2018-06-15T15:43:32.712Z,26.86
2018-06-15T15:44:32.532Z,27.03
2018-06-15T15:45:32.563Z,27.03
2018-06-15T15:46:32.431Z,27.15
2018-06-15T15:47:32.371Z,27.02
2018-06-15T15:48:32.247Z,26.91
2018-06-15T15:49:32.347Z,26.84
2018-06-15T15:50:32.123Z,26.88
2018-06-15T15:51:32.087Z,27.05
2018-06-15T15:52:31.952Z,27.02
2018-06-15T15:53:32.008Z,27.01
2018-06-15T15:54:31.905Z,26.83
2018-06-15T15:55:31.743Z,26.83
2018-06-15T15:56:31.683Z,26.66
2018-06-15T15:57:31.649Z,26.60
2018-06-15T15:58:31.520Z,26.49
2018-06-15T15:59:31.559Z,26.51
2018-06-15T16:00:31.376Z,26.69
2018-06-15T16:01:31.352Z,26.51
2018-06-15T16:02:31.249Z,26.65
2018-06-15T16:03:31.259Z,26.75
2018-06-15T16:04:31.126Z,26.53
2018-06-15T16:05:33.105Z,26.39
2018-06-15T16:06:30.945Z,26.50
2018-06-15T16:07:30.973Z,26.61
2018-06-15T16:08:30.812Z,26.66
2018-06-15T16:09:30.780Z,26.69
2018-06-15T16:10:30.687Z,26.53
2018-06-15T16:11:30.718Z,26.44
2018-06-15T16:12:30.560Z,26.31
2018-06-15T16:13:30.518Z,26.28
2018-06-15T16:14:30.512Z,26.42
2018-06-15T16:15:30.406Z,26.24
2018-06-15T16:16:30.215Z,26.23
2018-06-15T16:17:30.435Z,26.04
2018-06-15T16:18:30.082Z,26.09
2018-06-15T16:19:30.072Z,26.20
2018-06-15T16:20:29.926Z,26.21
2018-06-15T16:21:29.930Z,26.21
2018-06-15T16:22:29.800Z,26.03
2018-06-15T16:23:29.771Z,26.12
2018-06-15T16:24:29.663Z,26.06
2018-06-15T16:25:29.656Z,26.09
2018-06-15T16:26:29.485Z,26.11
2018-06-15T16:27:29.427Z,25.97
2018-06-15T16:28:29.369Z,26.11
2018-06-15T16:29:29.300Z,26.08
2018-06-15T16:30:29.270Z,26.12
2018-06-15T16:31:29.181Z,26.09
2018-06-15T16:32:29.059Z,26.12
2018-06-15T16:33:29.124Z,26.06
2018-06-15T16:34:28.905Z,25.94
2018-06-15T16:35:28.911Z,25.91
2018-06-15T16:36:28.777Z,25.89